Accueil
METAR-TAF:

METAR-TAF

Aéroports :

Bergerac, France

Aéroport de Bergerac-Dordogne-Périgord

latitude: 44-49N, longitude: 000-31E, altitude: 51 m

Observation

Le bulletin a été fait il y a 14 minutes, à 09:00 UTC
Vent 6 kt de nord/nord-ouest, variant entre ouest/nord-ouest et nord
Température 19°C
Humidité 60%
Pression 1024 hPa
Visibilité 10 km ou plus
Quelques nuages à une hauteur de 2900 ft

METAR: LFBE 190900Z AUTO 33006KT 300V010 9999 FEW029 19/11 Q1024 NOSIG

Heure: 11:14 (09:14 UTC)

Prévision

Le bulletin a été fait il y a 2 heures et 17 minutes, à 06:57 UTC
Prévision valable du 19 à 06 UTC au 20 à 06 UTC
Vent 2 kt de direction variable
Visibilité 10 km ou plus
pas de nuages en-dessous de 1500 mètres et pas de cumulonimbus.
Evoluant progressivement
du 19 à 10 UTC au 19 à 12 UTC
Vent 10 kt de nord-ouest

TAF: LFBE 190657Z 1906/2006 VRB02KT CAVOK BECMG 1910/1912 32010KT

Observations et prévisions météorologiques de plus de 4000 aéroports (messages METAR et TAF).

Les stations disponibles sont représentées par des disques jaunes et rouges sur la carte.

Passer la souris dessus pour voir le nom de la station.

Cliquer dessus pour voir les observations et prévisions météorologiques.

Pour changer de carte: cliquez sur les boutons verts avec une croix noire pour zoomer, sur le bouton vert avec un tiret pour effectuer un zoom arrière, ou sur les flèches vertes pour les cartes adjacentes.


METAR-TAF: